Time;durP1;ratioP1;P1;durP2;ratioP2;P2;SDS_P1;SDS_P2;PMS_P1;PMS_P2;Temp;Humidity;BMP_temperature;BMP_pressure;BME280_temperature;BME280_humidity;BME280_pressure;Samples;Min_cycle;Max_cycle;Signal;HPM_P1;HPM_P2
2023/09/13 00:02:14;;;;;;;6.82;4.00;;;;;;;19.04;84.61;98298.13;4982977;28;20053;-84
2023/09/13 00:04:39;;;;;;;7.78;4.57;;;;;;;19.24;84.26;98332.66;4995045;28;20034;-83
2023/09/13 00:07:05;;;;;;;8.23;4.70;;;;;;;18.54;86.81;98316.59;4995934;28;20036;-84
2023/09/13 00:09:30;;;;;;;6.55;3.75;;;;;;;18.67;85.97;98333.84;4974813;28;20169;-84
2023/09/13 00:11:55;;;;;;;8.25;4.50;;;;;;;18.83;85.84;98334.22;4970910;28;21592;-85
2023/09/13 00:14:21;;;;;;;7.82;4.35;;;;;;;18.85;85.30;98337.38;5003672;28;20370;-83
2023/09/13 00:16:46;;;;;;;6.97;3.80;;;;;;;18.91;85.04;98323.41;5005590;28;20057;-83
2023/09/13 00:19:12;;;;;;;7.07;3.95;;;;;;;19.17;84.37;98324.25;5005994;28;20034;-83
2023/09/13 00:21:40;;;;;;;8.15;3.75;;;;;;;18.28;88.19;98334.56;5003410;28;20030;-83
2023/09/13 00:24:07;;;;;;;6.70;3.90;;;;;;;18.26;87.90;98336.03;5007209;28;20440;-83
2023/09/13 00:26:33;;;;;;;4.97;3.85;;;;;;;18.24;88.17;98322.03;4988405;28;20037;-83
2023/09/13 00:28:58;;;;;;;7.13;4.30;;;;;;;18.54;87.04;98323.94;5002662;28;20489;-83
2023/09/13 00:31:24;;;;;;;6.82;3.95;;;;;;;19.07;85.40;98324.53;5006915;28;20034;-83
2023/09/13 00:33:49;;;;;;;5.20;3.63;;;;;;;19.12;84.34;98332.50;5002245;28;20041;-84
2023/09/13 00:36:15;;;;;;;6.85;3.72;;;;;;;19.08;84.42;98331.53;5003336;28;20026;-83
2023/09/13 00:38:40;;;;;;;4.00;3.60;;;;;;;19.29;84.86;98337.94;4995261;28;20022;-83
2023/09/13 00:41:05;;;;;;;4.15;3.60;;;;;;;18.64;86.40;98337.97;4989695;28;20029;-84
2023/09/13 00:43:31;;;;;;;6.88;3.45;;;;;;;18.87;86.02;98351.41;4985390;28;20084;-84
2023/09/13 00:45:57;;;;;;;7.70;3.72;;;;;;;19.06;85.50;98347.31;4978718;28;20044;-84
2023/09/13 00:48:23;;;;;;;4.60;3.35;;;;;;;18.72;85.87;98335.59;4975458;28;20140;-84
2023/09/13 00:50:50;;;;;;;5.22;3.45;;;;;;;18.88;86.22;98342.97;4999748;28;20045;-84
2023/09/13 00:53:16;;;;;;;4.60;3.47;;;;;;;18.90;85.88;98354.25;4966590;28;20041;-83
2023/09/13 00:55:43;;;;;;;5.70;3.03;;;;;;;18.83;86.54;98345.78;5001238;28;20049;-84
2023/09/13 00:58:09;;;;;;;4.25;2.92;;;;;;;18.89;85.39;98336.44;5002531;28;20037;-84
2023/09/13 01:00:36;;;;;;;3.25;2.88;;;;;;;18.87;85.89;98330.53;5001542;28;20030;-84
2023/09/13 01:03:05;;;;;;;5.60;2.63;;;;;;;19.17;84.54;98345.09;5004014;28;20030;-84
2023/09/13 01:05:31;;;;;;;4.40;2.72;;;;;;;19.18;84.48;98335.84;4990275;28;20048;-84
2023/09/13 01:07:56;;;;;;;4.40;2.53;;;;;;;19.17;84.36;98342.38;4986228;28;20042;-84
2023/09/13 01:10:22;;;;;;;3.58;3.08;;;;;;;19.15;84.86;98342.72;4998111;28;20033;-84
2023/09/13 01:12:47;;;;;;;7.03;2.88;;;;;;;19.22;84.29;98343.00;5009342;28;20119;-84
2023/09/13 01:15:12;;;;;;;5.28;2.70;;;;;;;19.21;83.56;98317.09;4969343;28;20061;-84
2023/09/13 01:17:47;;;;;;;5.68;2.83;;;;;;;19.30;83.90;98347.66;4999752;28;20045;-84
2023/09/13 01:20:50;;;;;;;5.45;3.67;;;;;;;19.32;84.20;98350.84;4999945;28;20052;-84
2023/09/13 01:23:52;;;;;;;4.38;2.40;;;;;;;19.32;84.34;98356.25;5000950;28;20483;-84
2023/09/13 01:26:30;;;;;;;2.50;2.30;;;;;;;19.23;84.00;98333.78;5003975;28;20116;-84
2023/09/13 01:28:59;;;;;;;2.67;2.25;;;;;;;19.20;83.87;98333.59;4999561;28;20160;-85
2023/09/13 01:31:27;;;;;;;3.38;2.25;;;;;;;19.28;84.67;98344.47;4999628;28;21005;-84
2023/09/13 01:33:52;;;;;;;2.60;2.40;;;;;;;19.20;84.47;98352.56;4999323;28;20026;-84
2023/09/13 01:36:18;;;;;;;3.63;2.55;;;;;;;19.19;84.12;98338.25;4981631;28;20026;-84
2023/09/13 01:38:43;;;;;;;3.38;2.85;;;;;;;19.05;84.82;98332.16;4986747;28;20026;-84
2023/09/13 01:41:25;;;;;;;4.82;3.47;;;;;;;19.19;84.10;98354.47;5004065;28;20044;-85
2023/09/13 01:43:54;;;;;;;3.67;2.28;;;;;;;19.17;84.49;98348.59;5005309;28;20025;-84
2023/09/13 01:46:27;;;;;;;3.42;2.72;;;;;;;18.98;84.13;98333.75;5003440;28;20046;-84
2023/09/13 01:48:55;;;;;;;3.55;2.60;;;;;;;19.14;83.82;98351.91;4987885;28;20026;-84
2023/09/13 01:51:21;;;;;;;2.80;2.40;;;;;;;19.21;83.85;98346.84;5019892;28;20049;-84
2023/09/13 01:53:47;;;;;;;2.90;2.35;;;;;;;19.24;83.66;98348.13;5016742;28;20038;-84
2023/09/13 01:56:13;;;;;;;5.60;2.58;;;;;;;19.02;83.42;98340.94;4987150;28;20064;-85
2023/09/13 01:58:38;;;;;;;3.45;2.55;;;;;;;19.15;83.36;98353.53;4987316;28;20382;-84
2023/09/13 02:01:03;;;;;;;5.22;2.22;;;;;;;19.21;83.39;98348.75;4989561;28;20084;-84
2023/09/13 02:03:29;;;;;;;3.65;2.67;;;;;;;19.07;83.76;98357.00;5001265;28;20041;-85
2023/09/13 02:05:54;;;;;;;5.03;2.15;;;;;;;19.12;83.28;98350.63;5008833;28;20032;-84
2023/09/13 02:08:19;;;;;;;6.63;2.45;;;;;;;18.97;84.27;98349.19;4994495;28;20421;-84
2023/09/13 02:10:48;;;;;;;2.60;2.05;;;;;;;19.13;83.72;98365.78;4981470;28;20084;-85
2023/09/13 02:13:13;;;;;;;5.40;2.90;;;;;;;18.81;85.50;98377.75;5004520;28;20030;-85
2023/09/13 02:15:40;;;;;;;2.75;2.55;;;;;;;18.62;86.92;98366.41;5006793;28;20036;-85
2023/09/13 02:18:05;;;;;;;3.33;3.10;;;;;;;18.54;86.70;98362.53;5006612;28;20033;-84
2023/09/13 02:20:31;;;;;;;2.78;2.20;;;;;;;19.02;84.21;98367.97;5003086;28;20041;-84
2023/09/13 02:22:56;;;;;;;7.60;2.88;;;;;;;19.18;83.87;98373.72;5005607;28;20038;-85
2023/09/13 02:25:21;;;;;;;3.97;2.22;;;;;;;19.05;83.42;98361.94;5005639;28;20049;-84
2023/09/13 02:27:47;;;;;;;4.15;2.90;;;;;;;18.89;84.61;98360.78;5007193;28;20068;-84
2023/09/13 02:30:12;;;;;;;5.35;2.67;;;;;;;19.06;84.23;98365.44;4999493;28;20030;-84
2023/09/13 02:32:37;;;;;;;5.53;2.67;;;;;;;19.21;83.69;98368.50;4989248;28;20087;-83
2023/09/13 02:35:03;;;;;;;4.97;2.50;;;;;;;19.03;83.60;98334.41;5004647;28;20034;-84
2023/09/13 02:37:28;;;;;;;2.88;2.40;;;;;;;19.11;83.92;98365.28;4970325;28;20049;-84
2023/09/13 02:39:54;;;;;;;5.75;2.63;;;;;;;19.22;83.53;98374.72;4986409;28;20663;-84
2023/09/13 02:42:19;;;;;;;3.58;2.63;;;;;;;19.24;83.74;98375.19;4988839;28;20430;-85
2023/09/13 02:44:45;;;;;;;4.90;2.85;;;;;;;19.17;83.81;98370.25;5003017;28;20129;-84
2023/09/13 02:47:10;;;;;;;3.15;2.47;;;;;;;18.94;85.00;98366.03;4983897;28;20584;-84
2023/09/13 02:49:35;;;;;;;8.18;4.72;;;;;;;18.72;86.08;98374.22;5001456;28;20628;-84
2023/09/13 02:52:02;;;;;;;7.75;4.90;;;;;;;18.31;87.24;98349.38;5001322;28;20482;-83
2023/09/13 02:54:27;;;;;;;7.25;4.25;;;;;;;18.40;86.44;98369.13;5005979;28;20030;-84
2023/09/13 02:56:53;;;;;;;12.63;4.18;;;;;;;18.52;86.57;98380.97;4986659;28;20026;-85
2023/09/13 02:59:18;;;;;;;5.35;3.35;;;;;;;18.47;86.56;98374.94;4989994;28;20378;-84
2023/09/13 03:01:44;;;;;;;9.65;5.03;;;;;;;18.27;87.96;98386.22;5005732;28;20022;-84
2023/09/13 03:04:11;;;;;;;8.13;5.22;;;;;;;18.03;88.99;98401.97;4999992;28;20057;-84
2023/09/13 03:06:39;;;;;;;5.38;4.25;;;;;;;18.23;88.16;98402.28;5005766;28;20431;-84
2023/09/13 03:09:05;;;;;;;5.00;3.35;;;;;;;18.33;88.58;98406.59;4999708;28;20088;-85
2023/09/13 03:11:30;;;;;;;3.80;3.35;;;;;;;18.33;88.61;98403.91;5001555;28;20033;-84
2023/09/13 03:13:55;;;;;;;5.40;3.42;;;;;;;18.45;86.92;98396.06;5002889;28;20474;-85
2023/09/13 03:16:21;;;;;;;6.55;3.97;;;;;;;18.22;88.47;98397.97;4998995;28;20033;-84
2023/09/13 03:18:50;;;;;;;5.65;4.10;;;;;;;17.93;90.44;98403.81;4998380;28;20036;-84
2023/09/13 03:21:18;;;;;;;5.75;3.67;;;;;;;18.17;88.94;98405.41;4983618;28;20038;-85
2023/09/13 03:23:45;;;;;;;5.25;4.05;;;;;;;17.93;90.74;98374.09;5003183;28;20658;-85
2023/09/13 03:26:18;;;;;;;3.80;3.33;;;;;;;18.09;90.28;98398.03;5001186;28;20041;-85
2023/09/13 03:28:47;;;;;;;6.43;3.63;;;;;;;18.13;90.11;98396.34;4999573;28;20420;-84
2023/09/13 03:31:14;;;;;;;4.75;4.07;;;;;;;18.30;89.18;98402.63;4999836;28;20045;-85
2023/09/13 03:33:40;;;;;;;5.82;3.35;;;;;;;18.58;86.54;98397.88;5013191;28;20032;-84
2023/09/13 03:36:08;;;;;;;4.40;4.00;;;;;;;18.17;89.38;98416.22;4998404;28;20018;-84
2023/09/13 03:38:35;;;;;;;4.38;3.65;;;;;;;18.23;87.95;98393.38;4999309;28;20057;-84
2023/09/13 03:41:02;;;;;;;9.75;6.13;;;;;;;17.78;91.30;98387.16;5000928;28;20049;-84
2023/09/13 03:43:28;;;;;;;4.15;3.35;;;;;;;18.53;87.14;98390.69;4984676;28;20102;-84
2023/09/13 03:45:53;;;;;;;5.22;3.33;;;;;;;18.94;84.60;98395.78;4985062;28;20033;-85
2023/09/13 03:48:18;;;;;;;11.88;5.30;;;;;;;18.34;88.08;98400.91;5002882;28;20060;-85
2023/09/13 03:50:44;;;;;;;3.92;3.58;;;;;;;18.41;87.29;98386.97;5005233;28;20112;-84
2023/09/13 03:53:09;;;;;;;4.90;4.40;;;;;;;18.17;89.47;98394.59;5005269;28;20502;-84
2023/09/13 03:55:34;;;;;;;4.22;3.47;;;;;;;18.12;88.93;98381.22;5004348;28;20033;-85
2023/09/13 03:58:00;;;;;;;5.85;4.97;;;;;;;18.08;89.74;98393.75;4999097;28;20029;-85
2023/09/13 04:00:25;;;;;;;4.60;4.22;;;;;;;17.94;91.34;98389.22;5004203;28;20181;-85
2023/09/13 04:02:50;;;;;;;6.90;4.70;;;;;;;17.83;92.19;98389.75;4986306;28;20124;-84
2023/09/13 04:05:16;;;;;;;3.65;2.95;;;;;;;18.26;88.26;98392.75;5001404;28;20441;-84
2023/09/13 04:07:41;;;;;;;6.88;6.18;;;;;;;17.87;90.25;98377.22;4984897;28;20030;-84
2023/09/13 04:10:07;;;;;;;9.07;7.32;;;;;;;17.85;91.62;98407.25;4969518;28;20022;-84
2023/09/13 04:12:33;;;;;;;10.30;6.35;;;;;;;17.53;93.23;98404.75;4986589;28;20498;-84
2023/09/13 04:14:58;;;;;;;4.30;3.97;;;;;;;17.59;93.52;98413.53;4967383;28;20046;-83
2023/09/13 04:17:24;;;;;;;4.10;3.70;;;;;;;17.44;91.25;98338.28;5015862;28;20033;-84
2023/09/13 04:19:49;;;;;;;9.45;5.95;;;;;;;17.37;93.21;98379.19;5008322;28;20068;-84
2023/09/13 04:22:16;;;;;;;4.20;3.80;;;;;;;18.27;89.42;98415.94;4992456;28;20026;-83
2023/09/13 04:24:42;;;;;;;10.00;6.95;;;;;;;17.72;91.59;98391.91;4987079;28;20490;-84
2023/09/13 04:27:08;;;;;;;4.43;3.63;;;;;;;18.50;87.26;98412.94;4969135;28;20031;-84
2023/09/13 04:29:33;;;;;;;4.45;3.92;;;;;;;18.54;86.12;98380.69;4993407;28;20539;-84
2023/09/13 04:31:59;;;;;;;5.90;3.47;;;;;;;18.79;85.34;98409.72;5007448;28;20161;-85
2023/09/13 04:34:25;;;;;;;8.68;3.40;;;;;;;18.92;83.99;98400.72;5009375;28;20076;-85
2023/09/13 04:36:51;;;;;;;8.05;6.18;;;;;;;18.78;85.27;98407.34;5007113;28;20029;-85
2023/09/13 04:39:16;;;;;;;6.70;5.95;;;;;;;18.15;88.80;98397.59;4975706;28;20022;-84
2023/09/13 04:41:41;;;;;;;5.38;3.88;;;;;;;18.45;87.75;98423.09;5006429;28;20034;-85
2023/09/13 04:44:07;;;;;;;8.23;7.43;;;;;;;18.59;87.10;98424.59;4984391;28;21667;-85
2023/09/13 04:46:32;;;;;;;3.30;3.00;;;;;;;18.76;85.17;98428.50;5003062;28;20108;-85
2023/09/13 04:48:57;;;;;;;6.03;5.40;;;;;;;18.55;86.36;98415.50;5002059;28;20049;-84
2023/09/13 04:51:23;;;;;;;3.78;3.35;;;;;;;18.78;85.41;98434.38;4987054;28;20033;-85
2023/09/13 04:53:48;;;;;;;4.00;3.50;;;;;;;18.97;84.01;98422.22;5004558;28;20029;-84
2023/09/13 04:56:13;;;;;;;4.05;3.60;;;;;;;18.99;83.93;98417.28;4992657;28;20482;-84
2023/09/13 04:58:39;;;;;;;9.18;7.72;;;;;;;18.79;84.86;98415.13;4991022;28;20956;-84
2023/09/13 05:01:06;;;;;;;8.25;5.15;;;;;;;18.79;85.01;98415.13;4973916;28;20065;-84
2023/09/13 05:03:32;;;;;;;7.88;4.57;;;;;;;18.46;86.58;98403.84;4982635;28;20091;-84
2023/09/13 05:05:57;;;;;;;5.40;3.30;;;;;;;18.80;83.92;98403.22;4972161;28;20514;-84
2023/09/13 05:08:23;;;;;;;14.13;7.10;;;;;;;18.85;85.13;98424.69;4984964;28;20037;-84
2023/09/13 05:10:51;;;;;;;3.58;3.25;;;;;;;18.98;83.70;98417.63;4985502;28;20038;-84
2023/09/13 05:13:16;;;;;;;5.38;3.50;;;;;;;19.15;83.18;98425.78;4982838;28;20034;-84
2023/09/13 05:15:43;;;;;;;3.88;3.58;;;;;;;19.24;82.74;98427.38;5003193;28;20069;-84
2023/09/13 05:18:09;;;;;;;3.85;3.55;;;;;;;19.19;82.51;98399.69;5002778;28;20108;-83
2023/09/13 05:20:34;;;;;;;6.32;4.10;;;;;;;19.17;83.12;98427.06;4986235;28;20383;-84
2023/09/13 05:22:59;;;;;;;4.15;3.63;;;;;;;18.99;83.71;98411.06;5003578;28;20033;-85
2023/09/13 05:25:25;;;;;;;5.53;4.18;;;;;;;18.80;85.29;98432.16;4976811;28;20026;-85
2023/09/13 05:27:50;;;;;;;6.78;3.22;;;;;;;18.73;84.73;98421.00;5009527;28;20133;-85
2023/09/13 05:30:16;;;;;;;9.57;6.47;;;;;;;18.62;86.09;98429.38;4970794;28;20120;-83
2023/09/13 05:32:41;;;;;;;4.45;3.97;;;;;;;18.61;86.75;98433.19;5006754;28;20030;-83
2023/09/13 05:35:07;;;;;;;7.43;6.63;;;;;;;18.39;88.62;98438.59;4984345;28;20121;-83
2023/09/13 05:37:32;;;;;;;3.72;3.10;;;;;;;18.64;86.49;98437.19;5010223;28;20060;-83
2023/09/13 05:39:58;;;;;;;3.65;2.90;;;;;;;18.74;85.55;98439.59;4991724;28;20161;-83
2023/09/13 05:42:23;;;;;;;4.47;3.67;;;;;;;18.96;84.50;98441.47;5010413;28;20037;-83
2023/09/13 05:44:49;;;;;;;3.70;3.40;;;;;;;18.87;84.48;98454.94;5006787;28;20117;-83
2023/09/13 05:47:14;;;;;;;3.58;3.28;;;;;;;18.77;84.75;98441.69;5008624;28;20033;-83
2023/09/13 05:49:39;;;;;;;3.50;3.17;;;;;;;18.97;84.56;98448.47;5001806;28;20053;-83
2023/09/13 05:52:05;;;;;;;3.97;2.80;;;;;;;18.94;84.38;98455.28;5001775;28;20038;-83
2023/09/13 05:54:31;;;;;;;6.40;2.72;;;;;;;18.99;83.81;98448.94;5008465;28;20076;-83
2023/09/13 05:56:56;;;;;;;3.53;3.10;;;;;;;18.96;84.13;98453.06;5009802;28;20037;-83
2023/09/13 05:59:22;;;;;;;4.82;3.40;;;;;;;18.95;84.59;98459.59;5007944;28;20040;-83
2023/09/13 06:01:48;;;;;;;3.58;3.28;;;;;;;18.98;84.15;98456.25;5007878;28;20622;-83
2023/09/13 06:04:13;;;;;;;4.25;3.03;;;;;;;18.95;84.58;98462.31;5011031;28;20026;-83
2023/09/13 06:06:38;;;;;;;5.97;3.83;;;;;;;18.83;85.31;98448.56;5007771;28;20076;-83
2023/09/13 06:09:04;;;;;;;3.97;3.17;;;;;;;18.86;84.28;98439.84;5010431;28;20460;-83
2023/09/13 06:11:30;;;;;;;3.13;2.75;;;;;;;18.90;84.61;98448.09;5001791;28;20037;-83
2023/09/13 06:13:56;;;;;;;8.65;5.20;;;;;;;18.92;85.22;98462.13;5007705;28;20440;-83
2023/09/13 06:16:24;;;;;;;3.72;2.88;;;;;;;18.96;84.02;98463.88;5009392;28;20033;-84
2023/09/13 06:18:50;;;;;;;4.25;3.38;;;;;;;19.10;84.00;98477.31;4978329;28;20030;-83
2023/09/13 06:21:15;;;;;;;2.92;2.63;;;;;;;19.15;83.54;98466.38;5010961;28;20470;-83
2023/09/13 06:23:41;;;;;;;2.88;2.67;;;;;;;19.14;83.47;98479.09;4994071;28;20030;-83
2023/09/13 06:26:07;;;;;;;5.53;2.97;;;;;;;19.06;83.97;98479.84;5007990;28;20025;-82
2023/09/13 06:28:33;;;;;;;3.85;3.28;;;;;;;18.99;84.19;98471.38;5009194;28;20030;-83
2023/09/13 06:30:59;;;;;;;4.47;3.30;;;;;;;19.07;84.16;98491.47;5009903;28;20492;-83
2023/09/13 06:33:25;;;;;;;4.35;3.38;;;;;;;18.90;84.38;98475.16;5009226;28;20026;-83
2023/09/13 06:35:51;;;;;;;5.15;3.55;;;;;;;18.88;84.78;98477.38;5021862;28;20030;-83
2023/09/13 06:38:17;;;;;;;4.45;3.45;;;;;;;18.87;85.01;98492.78;4989171;28;20497;-83
2023/09/13 06:40:43;;;;;;;4.05;3.75;;;;;;;18.75;85.24;98487.19;4974103;28;20567;-83
2023/09/13 06:43:10;;;;;;;3.95;3.55;;;;;;;18.95;84.63;98499.38;4993068;28;20033;-82
2023/09/13 06:45:35;;;;;;;5.90;4.68;;;;;;;18.89;84.79;98498.72;5008679;28;20034;-83
2023/09/13 06:48:00;;;;;;;5.38;4.72;;;;;;;18.64;85.62;98494.75;5008886;28;20117;-82
2023/09/13 06:50:26;;;;;;;4.07;3.67;;;;;;;18.99;84.20;98511.97;5008392;28;20021;-82
2023/09/13 06:52:51;;;;;;;5.22;4.72;;;;;;;18.80;85.03;98514.09;5010674;28;20034;-82
2023/09/13 06:55:17;;;;;;;5.70;4.53;;;;;;;18.86;85.03;98512.84;4993682;28;20033;-82
2023/09/13 06:57:42;;;;;;;5.90;4.35;;;;;;;18.82;84.88;98505.66;5008543;28;20026;-83
2023/09/13 07:00:09;;;;;;;8.05;5.75;;;;;;;18.89;84.72;98501.44;4973799;28;20135;-83
2023/09/13 07:02:34;;;;;;;5.63;3.92;;;;;;;18.95;84.26;98521.00;5009935;28;20030;-82
2023/09/13 07:04:59;;;;;;;4.30;3.90;;;;;;;19.01;84.52;98528.69;4990782;28;20793;-82
2023/09/13 07:07:25;;;;;;;7.18;4.00;;;;;;;19.01;84.72;98525.16;5005996;28;20032;-82
2023/09/13 07:09:51;;;;;;;5.07;3.92;;;;;;;19.02;84.36;98521.38;5008313;28;20121;-82
2023/09/13 07:12:16;;;;;;;4.60;4.20;;;;;;;19.02;84.68;98524.88;5010713;28;20156;-82
2023/09/13 07:14:42;;;;;;;6.10;3.72;;;;;;;19.05;84.57;98528.84;5009610;28;20884;-82
2023/09/13 07:17:07;;;;;;;4.63;3.72;;;;;;;19.10;84.20;98537.63;5008287;28;20381;-82
2023/09/13 07:19:32;;;;;;;3.72;3.42;;;;;;;19.10;84.66;98534.94;4990039;28;20108;-82
2023/09/13 07:21:58;;;;;;;4.65;3.83;;;;;;;18.91;85.26;98537.06;5008069;28;20065;-82
2023/09/13 07:24:23;;;;;;;8.85;5.25;;;;;;;18.67;89.38;98540.09;5008481;28;20042;-82
2023/09/13 07:26:48;;;;;;;4.68;4.13;;;;;;;18.96;86.16;98546.97;5006492;28;20026;-82
2023/09/13 07:29:14;;;;;;;5.20;3.63;;;;;;;19.10;85.05;98539.53;5022810;28;20046;-82
2023/09/13 07:31:39;;;;;;;5.93;3.58;;;;;;;18.90;86.26;98530.06;5010698;28;20385;-82
2023/09/13 07:34:05;;;;;;;4.22;3.80;;;;;;;18.98;88.08;98542.03;5009425;28;20056;-82
2023/09/13 07:36:30;;;;;;;4.43;3.20;;;;;;;19.20;84.21;98526.53;4991457;28;20026;-82
2023/09/13 07:38:56;;;;;;;5.38;3.30;;;;;;;19.34;83.39;98534.56;4987353;28;20065;-82
2023/09/13 07:41:21;;;;;;;4.10;3.70;;;;;;;19.42;83.52;98541.94;4973508;28;20045;-82
2023/09/13 07:43:47;;;;;;;3.88;3.40;;;;;;;19.47;83.54;98554.53;5008027;28;20032;-82
2023/09/13 07:46:12;;;;;;;4.95;4.32;;;;;;;19.44;83.83;98558.66;4992012;28;20042;-82
2023/09/13 07:48:38;;;;;;;3.83;3.50;;;;;;;19.57;83.45;98565.09;5008298;28;20401;-82
2023/09/13 07:51:04;;;;;;;4.03;3.22;;;;;;;19.70;82.49;98575.78;5001225;28;20065;-82
2023/09/13 07:53:30;;;;;;;5.30;4.72;;;;;;;19.43;84.96;98574.13;5001049;28;20082;-82
2023/09/13 07:55:59;;;;;;;4.28;3.88;;;;;;;19.58;84.15;98591.84;5026006;28;20059;-82
2023/09/13 07:58:24;;;;;;;4.13;3.70;;;;;;;19.34;84.46;98556.22;5013245;28;20018;-82
2023/09/13 08:00:50;;;;;;;4.40;3.72;;;;;;;19.70;82.98;98577.72;5012919;28;20029;-82
2023/09/13 08:03:15;;;;;;;7.97;4.82;;;;;;;19.58;83.19;98589.13;4994815;28;20030;-83
2023/09/13 08:05:45;;;;;;;4.78;4.25;;;;;;;19.63;83.02;98601.75;5011921;28;20092;-82
2023/09/13 08:08:15;;;;;;;5.38;4.10;;;;;;;19.76;82.47;98601.63;5013283;28;20026;-83
2023/09/13 08:10:41;;;;;;;5.20;4.15;;;;;;;19.71;82.71;98603.69;5012965;28;20108;-82
2023/09/13 08:13:07;;;;;;;5.18;3.60;;;;;;;19.76;82.57;98607.06;5012980;28;20025;-83
2023/09/13 08:15:32;;;;;;;4.55;3.80;;;;;;;19.65;83.46;98608.44;5011861;28;20077;-83
2023/09/13 08:17:58;;;;;;;4.25;3.85;;;;;;;19.70;82.49;98599.38;5013673;28;20034;-82
2023/09/13 08:20:23;;;;;;;5.20;4.38;;;;;;;19.78;82.50;98609.44;5012201;28;20030;-82
2023/09/13 08:22:49;;;;;;;6.05;5.47;;;;;;;19.50;84.66;98624.31;5009853;28;20113;-82
2023/09/13 08:25:14;;;;;;;6.53;5.22;;;;;;;19.31;85.60;98628.00;5008798;28;20466;-82
2023/09/13 08:27:40;;;;;;;7.40;5.00;;;;;;;19.57;84.78;98628.16;5012250;28;20404;-82
2023/09/13 08:30:08;;;;;;;26.17;5.75;;;;;;;19.81;83.65;98642.09;4976954;28;20030;-82
2023/09/13 08:32:34;;;;;;;4.90;4.28;;;;;;;20.07;82.33;98631.38;5012980;28;20022;-82
2023/09/13 08:35:00;;;;;;;6.38;4.47;;;;;;;20.08;81.97;98631.03;5012513;28;20029;-82
2023/09/13 08:37:25;;;;;;;5.72;4.40;;;;;;;20.11;81.52;98629.63;5011469;28;20137;-83
2023/09/13 08:39:51;;;;;;;5.50;5.00;;;;;;;20.16;81.84;98643.81;5011393;28;20512;-82
2023/09/13 08:42:17;;;;;;;6.25;5.03;;;;;;;20.22;81.14;98641.78;5011671;28;20069;-82
2023/09/13 08:44:46;;;;;;;6.13;4.30;;;;;;;20.15;81.01;98630.56;4995593;28;20030;-82
2023/09/13 08:47:12;;;;;;;4.68;4.28;;;;;;;20.32;80.76;98644.19;5009809;28;20388;-83
2023/09/13 08:49:38;;;;;;;5.20;4.03;;;;;;;20.19;80.64;98626.13;4972387;28;20029;-82
2023/09/13 08:52:05;;;;;;;6.80;4.53;;;;;;;20.11;81.57;98656.72;5010715;28;20038;-82
2023/09/13 08:54:32;;;;;;;4.43;3.35;;;;;;;20.23;80.06;98642.56;5008942;28;20397;-83
2023/09/13 08:56:59;;;;;;;7.72;4.25;;;;;;;20.36;79.80;98652.47;5019552;28;20030;-82
2023/09/13 08:59:25;;;;;;;4.70;4.18;;;;;;;20.32;79.75;98638.75;4987640;28;20057;-83
2023/09/13 09:01:53;;;;;;;4.57;3.65;;;;;;;20.35;81.03;98656.31;5010742;28;20037;-83
2023/09/13 09:04:20;;;;;;;4.38;3.97;;;;;;;20.30;80.38;98654.56;5003908;28;20029;-83
2023/09/13 09:06:46;;;;;;;4.07;3.67;;;;;;;20.39;79.99;98644.53;5005146;28;20042;-82
2023/09/13 09:09:13;;;;;;;4.22;3.83;;;;;;;20.50;80.20;98656.66;5012650;28;20080;-83
2023/09/13 09:11:43;;;;;;;4.88;4.10;;;;;;;20.52;79.86;98645.50;5011123;28;20034;-82
2023/09/13 09:14:10;;;;;;;4.55;4.15;;;;;;;20.70;79.65;98661.47;5010712;28;20508;-82
2023/09/13 09:16:38;;;;;;;6.93;3.92;;;;;;;20.63;79.70;98644.06;5009631;28;20030;-82
2023/09/13 09:19:05;;;;;;;4.40;4.00;;;;;;;20.62;80.19;98654.09;5012501;28;20092;-82
2023/09/13 09:21:31;;;;;;;5.30;4.05;;;;;;;20.79;79.48;98661.47;4992047;28;20033;-82
2023/09/13 09:23:58;;;;;;;4.45;3.60;;;;;;;20.78;78.80;98657.16;5011188;28;20045;-82
2023/09/13 09:26:23;;;;;;;4.90;3.65;;;;;;;20.84;79.39;98661.28;5010593;28;20022;-82
2023/09/13 09:28:50;;;;;;;4.82;4.30;;;;;;;20.86;78.08;98651.72;5011336;28;20087;-83
2023/09/13 09:31:17;;;;;;;4.43;4.03;;;;;;;20.93;78.37;98668.31;5008687;28;20040;-82
2023/09/13 09:33:42;;;;;;;3.95;3.50;;;;;;;20.86;79.01;98665.28;5010375;28;20021;-83
2023/09/13 09:36:09;;;;;;;5.35;3.67;;;;;;;20.86;77.74;98667.19;5010883;28;20029;-82
2023/09/13 09:38:35;;;;;;;4.72;3.53;;;;;;;20.99;77.77;98660.03;5007327;28;20076;-83
2023/09/13 09:41:04;;;;;;;4.20;3.72;;;;;;;20.95;79.26;98653.66;5009618;28;20030;-83
2023/09/13 09:43:30;;;;;;;4.72;4.22;;;;;;;21.01;78.60;98663.22;5010917;28;20148;-83
2023/09/13 09:45:56;;;;;;;4.25;3.85;;;;;;;21.10;77.85;98662.09;5010592;28;20359;-82
2023/09/13 09:48:22;;;;;;;4.28;3.90;;;;;;;21.10;77.66;98655.91;5007200;28;20034;-82
2023/09/13 09:50:51;;;;;;;6.88;4.05;;;;;;;21.18;77.93;98669.44;5008393;28;20032;-82
2023/09/13 09:53:17;;;;;;;7.40;4.60;;;;;;;21.30;77.31;98682.34;5010330;28;20054;-82
2023/09/13 09:55:43;;;;;;;5.15;4.70;;;;;;;21.31;78.82;98668.47;5008717;28;20096;-83
2023/09/13 09:58:09;;;;;;;4.05;3.65;;;;;;;21.37;77.00;98678.03;5009925;28;20034;-82
2023/09/13 10:00:47;;;;;;;5.38;4.20;;;;;;;21.30;77.13;98685.06;5009956;28;20030;-83
2023/09/13 10:03:17;;;;;;;8.23;4.20;;;;;;;21.09;78.04;98663.22;5009846;28;20452;-83
2023/09/13 10:05:59;;;;;;;5.10;4.55;;;;;;;21.18;77.92;98668.66;5007905;28;20034;-82
2023/09/13 10:08:39;;;;;;;5.50;5.00;;;;;;;21.27;77.49;98672.16;5008842;28;20764;-83
2023/09/13 10:11:10;;;;;;;7.00;4.82;;;;;;;21.24;78.27;98664.63;5003308;28;20034;-82
2023/09/13 10:13:36;;;;;;;5.38;4.88;;;;;;;21.18;78.56;98668.66;5004106;28;20045;-83
2023/09/13 10:16:02;;;;;;;7.78;6.45;;;;;;;21.29;77.93;98673.44;4977957;28;20026;-83
2023/09/13 10:18:30;;;;;;;7.85;5.80;;;;;;;21.53;76.73;98675.59;5006581;28;20486;-83
2023/09/13 10:20:57;;;;;;;8.88;7.25;;;;;;;21.45;77.19;98690.78;4990264;28;20219;-83
2023/09/13 10:23:49;;;;;;;6.43;4.72;;;;;;;21.52;76.53;98676.72;4989076;28;20028;-83
2023/09/13 10:26:18;;;;;;;6.10;5.50;;;;;;;21.49;76.97;98690.97;5007626;28;20034;-82
2023/09/13 10:28:49;;;;;;;5.45;4.72;;;;;;;21.47;76.81;98685.81;4994212;28;20500;-83
2023/09/13 10:31:27;;;;;;;8.40;5.88;;;;;;;21.37;76.99;98698.94;5005956;28;20061;-83
2023/09/13 10:33:53;;;;;;;6.13;5.53;;;;;;;21.11;77.84;98684.63;5010049;28;20030;-83
2023/09/13 10:36:45;;;;;;;5.80;5.20;;;;;;;21.34;77.39;98700.41;4993438;28;20042;-83
2023/09/13 10:39:27;;;;;;;5.70;4.72;;;;;;;21.26;77.40;98703.13;4999095;28;20492;-82
2023/09/13 10:42:02;;;;;;;5.93;5.30;;;;;;;21.14;78.28;98701.06;5023353;28;20069;-82
2023/09/13 10:44:27;;;;;;;7.53;6.50;;;;;;;20.96;79.73;98687.78;4994667;28;20458;-83
2023/09/13 10:46:55;;;;;;;8.02;6.30;;;;;;;20.87;80.81;98696.75;5009967;28;20056;-83
2023/09/13 10:49:20;;;;;;;6.03;5.43;;;;;;;20.92;79.32;98691.13;5009088;28;20108;-83
2023/09/13 10:51:47;;;;;;;6.80;6.07;;;;;;;20.86;79.34;98699.75;5010528;28;20113;-83
2023/09/13 10:54:14;;;;;;;7.78;6.07;;;;;;;20.85;79.81;98704.41;4993680;28;20030;-83
2023/09/13 10:56:40;;;;;;;9.55;6.38;;;;;;;20.62;82.80;98699.44;5025472;28;20034;-83
2023/09/13 10:59:06;;;;;;;10.85;7.22;;;;;;;20.65;80.42;98696.88;4993069;28;20045;-83
2023/09/13 11:01:34;;;;;;;8.02;6.35;;;;;;;20.72;81.29;98708.06;5008246;28;20033;-83
2023/09/13 11:03:59;;;;;;;6.80;6.10;;;;;;;20.77;81.19;98716.03;4990936;28;20493;-83
2023/09/13 11:06:26;;;;;;;6.57;5.97;;;;;;;20.85;80.65;98720.69;4990843;28;20114;-83
2023/09/13 11:08:52;;;;;;;8.32;5.45;;;;;;;20.87;80.74;98725.78;5009015;28;20076;-83
2023/09/13 11:11:21;;;;;;;7.47;6.43;;;;;;;20.75;82.46;98715.53;5000607;28;20061;-83
2023/09/13 11:13:53;;;;;;;7.80;6.63;;;;;;;20.70;83.94;98731.19;5008576;28;20406;-83
2023/09/13 11:16:19;;;;;;;8.90;6.72;;;;;;;20.66;83.19;98722.88;5009419;28;20269;-83
2023/09/13 11:18:49;;;;;;;6.45;5.80;;;;;;;20.85;81.48;98720.69;5008791;28;20034;-83
2023/09/13 11:21:26;;;;;;;10.40;9.32;;;;;;;20.34;82.17;98723.28;5009145;28;20065;-82
2023/09/13 11:23:52;;;;;;;9.05;7.07;;;;;;;20.73;81.90;98723.22;5003415;28;20061;-83
2023/09/13 11:26:45;;;;;;;7.60;6.55;;;;;;;20.93;81.71;98749.72;5009278;28;20026;-83
2023/09/13 11:29:27;;;;;;;7.03;6.20;;;;;;;20.69;81.76;98738.53;4986491;28;20069;-82
2023/09/13 11:32:04;;;;;;;6.07;5.47;;;;;;;21.03;80.77;98739.69;5008930;28;20037;-82
2023/09/13 11:34:32;;;;;;;9.10;6.00;;;;;;;21.07;80.80;98743.38;5009364;28;20088;-83